Latest Weather Observations for Paraburdoo

IDW60801

Issued at 8:04 am WST Thursday 23 February 2017 (issued every 30 minutes, with the page automatically refreshed every 10 minutes)

About weather observations | Map of weather stations | Latest weather observations for WA | Other Formats
Station Details ID: 007185 Name: PARABURDOO AERO Lat: -23.17 Lon: 117.75 Height: 423.7 m
Data from the previous 72 hours. | See also: Recent months at Paraburdoo
Date/Time
WST
Temp
°C
App
Temp
°C
Dew
Point
°C
Rel
Hum
%
Delta-T
°C
Wind Press
QNH
hPa
Press
MSL
hPa
Rain since
9am
mm
Dir  Spd
km/h
Gust
km/h
Spd
kts
Gust
kts
23/08:00am 29.2 24.3 8.3 27 11.7 ENE 24 35 13 19 1016.1 1012.4 0.0
23/07:30am 28.4 24.7 9.6 31 10.7 ENE 19 30 10 16 1015.6 1012.0 0.0
23/07:00am 25.7 23.2 11.1 40 8.4 NE 15 17 8 9 1015.4 1011.8 0.0
23/06:30am 24.0 21.5 11.0 44 7.4 ENE 15 19 8 10 1015.0 1011.4 0.0
23/06:00am 23.5 20.7 9.9 42 7.6 ENE 15 19 8 10 1014.6 1011.0 0.0
23/05:30am 23.3 21.3 11.4 47 6.8 ENE 13 17 7 9 1014.4 1010.8 0.0
23/05:00am 23.2 22.0 12.8 52 6.1 ENE 11 13 6 7 1014.2 1010.6 0.0
23/04:30am 25.0 23.1 8.9 36 8.9 ESE 9 13 5 7 1014.0 1010.3 0.0
23/04:00am 24.9 22.7 9.2 37 8.7 ENE 11 17 6 9 1013.8 1010.1 0.0
23/03:30am 26.0 23.7 7.6 31 10.0 E 9 13 5 7 1013.6 1009.9 0.0
23/03:00am 27.0 24.1 6.4 27 11.0 E 11 15 6 8 1013.4 1009.8 0.0
23/02:30am 25.5 25.5 11.3 41 8.2 E 2 9 1 5 1013.7 1010.0 0.0
23/02:00am 24.3 24.2 13.2 50 6.6 NE 6 7 3 4 1013.7 1010.0 0.0
23/01:30am 24.6 24.0 13.5 50 6.6 NNE 9 11 5 6 1014.0 1010.3 0.0
23/01:00am 24.3 24.4 14.4 54 6.0 NNE 7 15 4 8 1014.2 1010.6 0.0
23/12:30am 25.8 25.4 12.3 43 7.9 NNW 6 7 3 4 1014.2 1010.6 0.0
23/12:00am 26.9 25.9 11.0 37 9.2 E 7 11 4 6 1014.4 1010.8 0.0
 
Date/Time
WST
Temp
°C
App
Temp
°C
Dew
Point
°C
Rel
Hum
%
Delta-T
°C
Wind Press
QNH
hPa
Press
MSL
hPa
Rain since
9am
mm
Dir  Spd
km/h
Gust
km/h
Spd
kts
Gust
kts
22/11:30pm 26.1 25.5 11.8 41 8.3 ENE 6 7 3 4 1014.6 1011.0 0.0
22/11:00pm 27.2 25.7 10.4 35 9.6 ENE 9 11 5 6 1014.8 1011.2 0.0
22/10:30pm 28.7 27.5 7.9 27 11.5 S 4 7 2 4 1014.8 1011.2 0.0
22/10:00pm 28.8 27.6 9.5 30 11.0 SSE 6 7 3 4 1014.9 1011.3 0.0
22/09:30pm 29.4 29.4 11.0 32 10.7 ENE 2 6 1 3 1014.8 1011.2 0.0
22/09:00pm 28.7 27.8 10.8 33 10.4 SSE 6 9 3 5 1014.7 1011.1 0.0
22/08:30pm 29.6 28.8 11.6 33 10.6 S 7 9 4 5 1014.5 1010.9 0.0
22/08:00pm 30.6 29.7 11.5 30 11.3 SSW 7 9 4 5 1014.0 1010.3 0.0
22/07:30pm 32.0 30.2 9.5 25 13.0 SW 9 11 5 6 1013.7 1010.0 0.0
22/07:00pm 33.1 30.7 8.5 22 14.0 SSW 11 15 6 8 1013.2 1009.6 0.0
22/06:30pm 34.4 31.7 7.5 19 15.2 S 11 15 6 8 1012.9 1009.3 0.0
22/06:00pm 35.1 32.0 7.2 18 15.7 S 13 19 7 10 1012.5 1008.9 0.0
22/05:30pm 35.5 32.5 7.6 18 15.9 SSW 13 20 7 11 1012.1 1008.5 0.0
22/05:00pm 36.2 33.7 8.1 18 16.2 SSW 11 15 6 8 1011.8 1008.1 0.0
22/04:30pm 36.1 33.2 8.0 18 16.1 SSW 13 22 7 12 1011.8 1008.1 0.0
22/04:00pm 36.3 33.2 7.4 17 16.5 S 13 20 7 11 1012.0 1008.3 0.0
22/03:30pm 35.8 32.3 7.0 17 16.2 SSW 15 24 8 13 1012.1 1008.5 0.0
22/03:00pm 36.0 33.2 7.1 17 16.4 WNW 11 20 6 11 1012.3 1008.7 0.0
22/02:30pm 35.6 33.9 8.4 19 15.7 S 7 17 4 9 1012.7 1009.1 0.0
22/02:00pm 35.9 34.9 10.9 22 15.0 SE 7 11 4 6 1013.0 1009.4 0.0
22/01:30pm 34.9 33.4 12.0 25 13.9 ENE 11 19 6 10 1013.3 1009.7 0.0
22/01:00pm 35.0 33.4 11.4 24 14.2 ESE 11 17 6 9 1013.9 1010.2 0.0
22/12:30pm 33.8 33.0 11.0 25 13.6 E 6 9 3 5 1014.3 1010.7 0.0
22/12:00pm 33.6 33.1 12.0 27 13.0 SE 6 11 3 6 1014.7 1011.1 0.0
22/11:30am 32.3 31.1 11.5 28 12.4 SE 9 17 5 9 1014.9 1011.3 0.0
22/11:00am 32.2 30.9 11.4 28 12.4 SSE 9 17 5 9 1015.2 1011.6 0.0
22/10:30am 31.5 30.4 11.8 30 11.7 E 9 15 5 8 1015.4 1011.8 0.0
22/10:00am 30.8 29.4 12.2 32 11.1 E 11 19 6 10 1015.7 1012.1 0.0
22/09:30am 29.9 27.4 10.9 31 11.1 ESE 15 22 8 12 1015.8 1012.2 0.0
22/09:00am 29.1 25.5 9.8 30 11.0 ESE 19 26 10 14 1015.7 1012.1 0.0
22/08:30am 28.4 24.3 8.7 29 11.0 ESE 20 26 11 14 1015.6 1012.0 0.0
22/08:00am 28.1 24.8 9.4 31 10.6 ESE 17 24 9 13 1015.5 1011.9 0.0
22/07:30am 27.2 22.8 9.1 32 10.1 ESE 22 28 12 15 1015.2 1011.6 0.0
22/07:00am 26.4 25.1 11.3 39 8.7 E 9 13 5 7 1014.9 1011.3 0.0
22/06:30am 24.2 24.9 15.7 59 5.2 E 6 7 3 4 1014.7 1011.1 0.0
22/06:00am 23.9 23.8 14.0 54 5.9 SE 7 9 4 5 1014.4 1010.8 0.0
22/05:30am 24.9 23.9 11.1 42 7.9 ESE 7 9 4 5 1014.4 1010.8 0.0
22/05:00am 25.6 23.5 11.0 40 8.4 S 13 15 7 8 1014.1 1010.4 0.0
22/04:30am 26.5 25.2 11.4 39 8.8 SSE 9 13 5 7 1013.8 1010.1 0.0
22/04:00am 25.9 25.5 12.4 43 7.9 SSE 6 11 3 6 1013.4 1009.8 0.0
22/03:30am 26.4 26.0 14.2 47 7.4 SSE 9 11 5 6 1013.3 1009.7 0.0
22/03:00am 27.0 27.2 14.7 47 7.5 S 7 11 4 6 1012.9 1009.3 0.0
22/02:30am 27.2 27.8 15.9 50 7.1 SSE 7 11 4 6 1012.9 1009.3 0.0
22/02:00am 27.9 27.9 16.2 49 7.4 S 11 17 6 9 1012.8 1009.2 0.0
22/01:30am 28.2 28.0 16.8 50 7.2 S 13 17 7 9 1012.8 1009.2 0.0
22/01:00am 28.4 28.4 17.3 51 7.1 S 13 20 7 11 1012.9 1009.3 0.0
22/12:30am 28.8 29.0 17.7 51 7.2 S 13 19 7 10 1013.0 1009.4 0.0
22/12:00am 29.2 29.0 17.7 50 7.4 S 15 20 8 11 1013.1 1009.5 0.0
 
Date/Time
WST
Temp
°C
App
Temp
°C
Dew
Point
°C
Rel
Hum
%
Delta-T
°C
Wind Press
QNH
hPa
Press
MSL
hPa
Rain since
9am
mm
Dir  Spd
km/h
Gust
km/h
Spd
kts
Gust
kts
21/11:30pm 29.7 30.2 17.5 48 7.9 S 11 15 6 8 1013.2 1009.6 0.0
21/11:00pm 29.5 30.5 17.7 49 7.6 S 9 15 5 8 1013.3 1009.7 0.0
21/10:30pm 29.6 30.6 17.8 49 7.6 S 9 13 5 7 1013.3 1009.7 0.0
21/10:00pm 30.0 31.5 17.5 47 8.1 SSW 6 7 3 4 1013.4 1009.8 0.0
21/09:30pm 30.3 31.0 17.0 44 8.5 S 9 15 5 8 1013.2 1009.6 0.0
21/09:00pm 30.7 30.5 16.7 43 9.0 S 13 17 7 9 1012.9 1009.3 0.0
21/08:30pm 30.8 31.0 16.8 43 9.0 SSW 11 13 6 7 1012.8 1009.2 0.0
21/08:00pm 31.2 31.3 16.4 41 9.4 S 11 13 6 7 1012.5 1008.9 0.0
21/07:30pm 31.7 32.3 16.8 40 9.6 S 9 15 5 8 1012.3 1008.7 0.0
21/07:00pm 32.2 31.2 16.5 39 10.1 S 17 24 9 13 1011.7 1008.0 0.0
21/06:30pm 33.1 32.3 16.0 35 10.9 SSW 15 20 8 11 1011.0 1007.4 0.0
21/06:00pm 33.0 31.9 16.4 37 10.7 SSW 17 24 9 13 1010.7 1007.1 0.0
21/05:30pm 33.9 31.1 16.3 35 11.3 S 26 39 14 21 1010.3 1006.7 0.0
21/05:00pm 35.8 34.0 15.5 29 13.0 SW 19 26 10 14 1009.9 1006.3 0.0
21/04:30pm 35.5 33.1 15.3 30 12.9 SW 22 35 12 19 1010.0 1006.4 0.0
21/04:00pm 36.1 34.0 14.7 28 13.5 SW 19 26 10 14 1010.0 1006.4 0.0
21/03:30pm 36.8 35.5 15.8 28 13.5 WSW 17 24 9 13 1010.1 1006.5 0.0
21/03:00pm 36.7 35.2 15.2 27 13.7 WSW 17 26 9 14 1010.4 1006.8 0.0
21/02:30pm 36.0 34.5 15.2 29 13.2 WSW 17 26 9 14 1010.7 1007.1 0.0
21/02:00pm 35.4 34.1 15.7 31 12.6 SW 17 26 9 14 1010.9 1007.3 0.0
21/01:30pm 35.8 35.3 16.0 30 12.7 WSW 13 20 7 11 1011.2 1007.5 0.0
21/01:00pm 35.7 34.6 16.4 31 12.5 WSW 17 28 9 15 1011.6 1007.9 0.0
21/12:30pm 35.6 36.4 17.3 33 12.0 SW 9 17 5 9 1011.9 1008.2 0.0
21/12:00pm 34.8 35.3 16.6 33 11.8 W 9 13 5 7 1012.3 1008.7 0.0
21/11:30am 34.1 33.4 15.5 32 11.8 SSW 13 19 7 10 1012.6 1009.0 0.0
21/11:00am 33.4 33.6 15.8 34 11.2 WSW 9 13 5 7 1012.9 1009.3 0.0
21/10:30am 33.3 33.8 16.6 36 10.7 W 9 15 5 8 1013.2 1009.6 0.0
21/10:00am 32.2 33.7 18.0 42 9.3 ENE 7 11 4 6 1013.4 1009.8 0.0
21/09:30am 31.6 32.7 17.1 41 9.3 ENE 7 13 4 7 1013.7 1010.0 0.0
21/09:00am 31.6 33.4 18.2 44 8.8 E 6 9 3 5 1013.7 1010.0 0.0
21/08:30am 30.6 33.1 17.3 45 8.6 CALM 0 9 0 5 1013.7 1010.0 0.0
21/08:00am 29.2 31.5 18.6 52 6.9 NE 4 6 2 3 1013.4 1009.8 0.0
21/07:30am 27.6 29.3 18.6 58 5.9 NE 7 9 4 5 1013.2 1009.6 0.0
21/07:00am 26.2 28.9 20.3 70 3.9 ENE 6 7 3 4 1013.0 1009.4 0.0
21/06:30am 24.7 28.8 21.6 83 2.1 ENE 2 7 1 4 1012.7 1009.1 0.0
21/06:00am 23.9 26.9 20.8 83 2.1 ESE 6 7 3 4 1012.5 1008.9 0.0
21/05:30am 24.1 26.7 20.0 78 2.7 ENE 6 9 3 5 1012.2 1008.6 0.0
21/05:00am 24.5 26.9 20.0 76 3.0 NNE 7 13 4 7 1012.0 1008.3 0.0
21/04:30am 24.8 26.7 19.8 74 3.3 NNE 9 11 5 6 1011.7 1008.0 0.0
21/04:00am 26.4 29.6 18.8 63 4.9 CALM 0 0 0 0 1011.3 1007.6 0.0
21/03:30am 27.7 29.1 17.3 53 6.6 S 6 11 3 6 1011.2 1007.5 0.0
21/03:00am 27.4 28.5 18.1 57 6.0 WNW 9 11 5 6 1011.3 1007.6 0.0
21/02:30am 27.6 30.3 17.7 54 6.4 CALM 0 6 0 3 1011.3 1007.6 0.0
21/02:00am 28.3 29.1 17.2 51 7.1 S 9 11 5 6 1011.3 1007.6 0.0
21/01:30am 28.9 29.6 17.1 49 7.5 SW 9 13 5 7 1011.3 1007.6 0.0
21/01:00am 27.5 28.9 17.4 54 6.5 SW 6 9 3 5 1011.5 1007.8 0.0
21/12:30am 26.6 29.2 19.2 64 4.8 SW 4 11 2 6 1011.6 1007.9 0.0
21/12:00am 26.3 28.3 18.7 63 4.9 SE 6 13 3 7 1011.6 1007.9 0.0
 
Date/Time
WST
Temp
°C
App
Temp
°C
Dew
Point
°C
Rel
Hum
%
Delta-T
°C
Wind Press
QNH
hPa
Press
MSL
hPa
Rain since
9am
mm
Dir  Spd
km/h
Gust
km/h
Spd
kts
Gust
kts
20/11:30pm 26.4 28.9 20.3 69 4.1 ENE 7 9 4 5 1011.5 1007.8 0.0
20/11:00pm 26.9 28.6 19.3 63 5.0 E 9 9 5 5 1011.6 1007.9 0.0
20/10:30pm 27.3 29.0 18.6 59 5.7 NE 7 9 4 5 1011.8 1008.1 0.0
20/10:00pm 27.6 29.6 19.1 59 5.6 NE 7 7 4 4 1011.9 1008.2 0.0
20/09:30pm 28.0 29.0 18.7 57 6.1 NE 11 11 6 6 1011.8 1008.1 0.0
20/09:00pm 28.8 30.7 18.9 55 6.5 NE 7 9 4 5 1011.7 1008.0 0.0
20/08:30pm 31.1 31.6 15.5 39 9.8 W 7 9 4 5 1011.5 1007.8 0.0
20/08:00pm 32.5 32.5 13.7 32 11.6 WSW 6 9 3 5 1011.3 1007.6 0.0
20/07:30pm 32.8 32.7 13.9 31 11.7 WSW 7 7 4 4 1010.7 1007.1 0.0
20/07:00pm 33.7 32.5 11.5 26 13.3 SSW 9 11 5 6 1010.3 1006.7 0.0
20/06:30pm 35.0 33.2 9.4 21 14.9 SSW 9 11 5 6 1009.9 1006.3 0.0
20/06:00pm 35.8 33.4 8.6 19 15.7 S 11 15 6 8 1009.7 1006.0 0.0
20/05:30pm 36.4 34.5 9.1 19 15.9 WSW 9 17 5 9 1009.4 1005.7 0.0
20/05:00pm 36.7 35.2 8.5 18 16.4 SW 6 13 3 7 1009.4 1005.7 0.0
20/04:30pm 36.5 34.8 9.9 20 15.7 NNW 9 13 5 7 1009.3 1005.6 0.0
20/04:00pm 36.1 34.7 9.6 20 15.6 W 7 11 4 6 1009.4 1005.7 0.0
20/03:30pm 36.2 34.1 8.1 18 16.2 ENE 9 15 5 8 1009.6 1005.9 0.0
20/03:00pm 36.1 32.8 9.6 20 15.6 ENE 17 22 9 12 1009.9 1006.3 0.0
20/02:30pm 36.4 34.5 9.1 19 15.9 ESE 9 17 5 9 1010.1 1006.5 0.0
20/02:00pm 36.0 32.5 10.2 21 15.3 E 19 30 10 16 1010.4 1006.8 0.0
20/01:30pm 35.8 31.9 9.3 20 15.5 E 20 30 11 16 1010.7 1007.1 0.0
20/01:00pm 35.2 31.2 6.5 17 16.0 E 17 26 9 14 1011.0 1007.4 0.0
20/12:30pm 34.8 33.2 7.8 19 15.3 NE 6 11 3 6 1011.4 1007.7 0.0
20/12:00pm 34.4 32.5 8.9 21 14.7 E 9 19 5 10 1011.9 1008.2 0.0
20/11:30am 34.1 33.0 11.9 26 13.4 NNE 9 13 5 7 1012.3 1008.7 0.0
20/11:00am 33.4 31.3 11.3 26 13.2 NNE 13 26 7 14 1012.9 1009.3 0.0
20/10:30am 32.8 31.7 11.9 28 12.5 ENE 9 17 5 9 1013.2 1009.6 0.0
20/10:00am 31.7 30.9 13.9 34 11.0 NE 11 15 6 8 1013.4 1009.8 0.0
20/09:30am 30.6 32.1 18.0 47 8.2 NE 7 11 4 6 1013.8 1010.1 0.0
20/09:00am 28.8 31.2 18.9 55 6.5 ENE 4 7 2 4 1013.8 1010.1 0.0
20/08:30am 28.4 31.8 19.3 57 6.0 CALM 0 0 0 0 1013.8 1010.1 0.0

Other Formats:

Comma delimited format used in spreadsheet applications
http://www.bom.gov.au/fwo/IDW60801/IDW60801.94316.axf

JavaScript Object Notation format (JSON) in row-major order
http://www.bom.gov.au/fwo/IDW60801/IDW60801.94316.json